Terminal Aerodrome Forecast
Issued by NWS

Home | Current Version | Previous Version | Text Only | Print | Product List | Glossary On
Versions: 1 2 3 4 5 6 7 8 9 10 11 12 13 14 15 16 17 18 19 20 21 22 23 24 25 26 27 28 29 30 31 32
000
FTUS45 KCYS 281740
TAFLAR
TAF
KLAR 281740Z 2818/2918 23014G28KT P6SM SCT100
     FM282100 26016G29KT P6SM BKN100
     FM290100 29009KT P6SM BKN100
     FM290600 31010KT 4SM -SN BR OVC025
     FM290800 35011KT 3/4SM -SN BR OVC015=

USA.gov is the U.S. government's official web portal to all federal, state and local government web resources and services.